METAR Data
IDs: Format: Raw Decoded Include TAF

Data at: 0147 UTC 05 Jun 2020

KCGI 050053Z AUTO 10003KT 10SM FEW050 23/21 A2981 RMK AO2 SLP089 T02330211
KCGI 042353Z AUTO 11003KT 10SM CLR 26/21 A2979 RMK AO2 SLP083 6//// T02610211 10267 20217 53004
KCGI 042253Z AUTO 00000KT 10SM FEW023 26/21 A2978 RMK AO2 SLP080 T02610211
KCGI 042153Z AUTO VRB05KT 10SM FEW012 BKN065 26/21 A2978 RMK AO2 SLP079 T02560211
KCGI 042053Z AUTO 36008KT 10SM OVC036 23/21 A2978 RMK AO2 RAE1957 SLP081 P0007 6//// T02330211 55013
KCGI 042042Z AUTO 34008KT 10SM SCT018 SCT025 OVC040 23/21 A2978 RMK AO2 RAE1957 P0006 T02330206
KCGI 041953Z 03009KT 7SM -RA FEW007 BKN020 OVC027 23/21 A2978 RMK AO2 LTG DSNT S SLP080 P0008 T02280206
KCGI 041944Z 03013KT 3SM -RA BR SCT007 BKN015 OVC024 22/21 A2978 RMK AO2 P0007 T02220206
KCGI 041940Z 04013KT 2 1/2SM RA BR SCT007 BKN012 OVC045 22/21 A2978 RMK AO2 P0006 T02220206
KCGI 041931Z 04010G19KT 3SM RA BR SCT007 BKN015 OVC045 22/21 A2979 RMK AO2 LTG DSNT S P0005 T02170206
KCGI 041859Z 06012KT 1 3/4SM R10/4500VP6000FT +RA BR FEW009 BKN018 OVC030 22/21 A2980 RMK AO2 P0000 T02170206
KCGI 041853Z 06009KT 2SM R10/6000VP6000FT RA BR FEW011 BKN016 OVC030 22/21 A2980 RMK AO2 SLP088 T02220206 PNO
KCGI 041841Z 04009KT 1SM R10/2600VP6000FT +RA BR FEW007 BKN025 OVC031 22/21 A2980 RMK AO2 LTG DSNT SW T02170206 PNO
KCGI 041823Z 03008KT 2SM R10/4500VP6000FT RA BR SCT008 BKN024 OVC070 22/21 A2980 RMK AO2 T02220211 PNO $
KCGI 041816Z 03008KT 1 1/2SM R10/4500VP6000FT +RA BR BKN006 BKN020 OVC031 22/21 A2981 RMK AO2 T02220211 PNO $
KCGI 041811Z 02005KT 2SM R10/5000VP6000FT +RA BR FEW006 BKN013 OVC037 22/21 A2981 RMK AO2 T02220211 PNO $
KCGI 041805Z 02008KT 2SM R10/4500VP6000FT RA BR SCT013 BKN024 OVC043 22/21 A2981 RMK AO2 T02220206 PNO $
KCGI 041759Z 03009KT 1 3/4SM R10/4000VP6000FT +RA BR BKN013 BKN024 OVC043 22/21 A2981 RMK AO2 VIS 1V5 P0000 T02220206
KCGI 041753Z 01007KT 6SM RA BR OVC013 23/21 A2981 RMK AO2 RAB23E43B50 SLP092 P0001 60021 T02280206 10239 20211 55007
KCGI 041749Z 35006KT 10SM OVC013 23/21 A2981 RMK AO2 RAB23E43 P0001
KCGI 041653Z 25005KT 10SM BKN016 BKN034 BKN045 23/21 A2983 RMK AO2 CIG 009V025 SLP099 T02330206
KCGI 041602Z 14009KT 10SM FEW007 23/21 A2978 RMK AO2 T02280206
KCGI 041553Z 15008KT 10SM CLR 23/20 A2978 RMK AO2 RAE00 SLP082 P0004 T02280200
KCGI 041544Z 15013G20KT 10SM FEW006 22/21 A2978 RMK AO2 RAE00 P0003 T02220206
KCGI 041453Z 16005KT 10SM -RA BKN110 22/21 A2981 RMK AO2 SLP089 P0007 60016 T02220206 58023
KCGI 041353Z 15005KT 5SM -RA BR OVC110 22/20 A2986 RMK AO2 LTG DSNT NE SLP106 P0007 T02170200
KCGI 041334Z 15004KT 5SM -RA BR SCT008 OVC110 21/20 A2987 RMK AO2 PRESFR P0005 T02110200
KCGI 041322Z 22005KT 3SM RA BR BKN008 BKN110 21/20 A2988 RMK AO2 LTG DSNT NE P0003 T02110200
KCGI 041309Z 26008KT 4SM RA BR BKN010 BKN049 OVC100 22/20 A2989 RMK AO2 LTG DSNT NE AND SE CIG 005V022 P0001 T02170200
KCGI 041303Z 25005KT 3SM VCTS -RA BR BKN009 BKN048 OVC100 22/20 A2988 RMK AO2 LTG DSNT NE AND SE CIG 005V022 P0001 T02170200
KCGI 041256Z 27006G16KT 2 1/2SM VCTS RA BR BKN009 BKN016 OVC048 22/21 A2988 RMK AO2 LTG DSNT SE CIG 005V012 P0000 T02170206
KCGI 041253Z 26009KT 3SM VCTS RA BR SCT009 BKN013 OVC047 22/20 A2988 RMK AO2 LTG DSNT S RAB29 SLP114 P0002 T02170200
KCGI 041248Z 26011KT 3SM VCTS RA BR SCT007 BKN013 OVC019 22/20 A2987 RMK AO2 LTG DSNT S RAB29 PRESRR P0002
KCGI 041239Z 24010KT 4SM -RA BR BKN009 BKN013 OVC019 22/21 A2986 RMK AO2 LTG DSNT S AND SW RAB29 CIG 006V011 PRESRR P0001 T02220206
KCGI 041226Z 26008KT 9SM BKN013 BKN019 OVC055 23/21 A2985 RMK AO2 LTG DSNT S AND SW T02280206
KCGI 041215Z 24009KT 8SM VCTS SCT016 SCT021 BKN026 23/21 A2984 RMK AO2 LTG DSNT S AND SW T02280206
KCGI 041153Z 22004KT 9SM CLR 22/21 A2983 RMK AO2 LTG DSNT SW RAB05E25 SLP098 P0000 60000 T02220206 10228 20200 55003
KCGI 041053Z AUTO 20005KT 7SM FEW044 21/19 A2983 RMK AO2 SLP096 T02110194
KCGI 041018Z AUTO 15003KT 9SM FEW010 SCT018 SCT110 21/19 A2982 RMK AO2 LTG DSNT SW AND W T02110194
KCGI 041003Z AUTO 00000KT 10SM SCT011 BKN017 BKN041 22/20 A2983 RMK AO2 LTG DSNT SW T02170200
KCGI 040953Z AUTO 35005KT 9SM SCT011 SCT040 BKN075 21/19 A2984 RMK AO2 SLP099 T02110194
KCGI 040853Z AUTO 00000KT 10SM CLR 21/19 A2984 RMK AO2 LTG DSNT NW SLP100 T02060189 55006
KCGI 040753Z AUTO 22003KT 10SM CLR 22/19 A2983 RMK AO2 SLP098 T02170194
KCGI 040653Z AUTO 27004KT 10SM CLR 22/19 A2984 RMK AO2 SLP099 T02170194
KCGI 040553Z AUTO 22004KT 10SM CLR 22/19 A2986 RMK AO2 SLP105 60000 T02220189 10300 20222 403220167 53005
KCGI 040453Z AUTO 22005KT 10SM CLR 22/19 A2984 RMK AO2 SLP101 T02220189
KCGI 040353Z AUTO 21005KT 10SM CLR 23/18 A2984 RMK AO2 SLP101 T02280183
KCGI 040253Z AUTO 26006KT 10SM CLR 24/18 A2984 RMK AO2 SLP102 60000 T02390178 55002
KCGI 040153Z AUTO 21005KT 10SM CLR 24/18 A2983 RMK AO2 SLP099 T02390183
KCGI 040053Z AUTO 24009KT 10SM CLR 26/18 A2984 RMK AO2 PK WND 26029/2355 LTG DSNT E RAE02 SLP101 P0000 T02610178
KCGI 032353Z AUTO 25025G33KT 10SM -RA BKN065 30/19 A2985 RMK AO2 PK WND 26033/2353 RAB52 SLP103 P0000 60000 T03000194 10322 20300 53004
KCGI 032253Z AUTO 23010KT 10SM FEW055 31/20 A2984 RMK AO2 SLP101 T03110200
KCGI 032153Z AUTO 21008KT 10SM CLR 32/20 A2982 RMK AO2 SLP096 T03170200
KCGI 032053Z AUTO 18008KT 10SM CLR 32/21 A2983 RMK AO2 SLP099 T03170206 58031
KCGI 031953Z 21009KT 10SM FEW049 SCT060 31/21 A2987 RMK AO2 LTG DSNT NW SLP110 T03110206
KCGI 031853Z 19006KT 10SM FEW045 31/21 A2990 RMK AO2 LTG DSNT NW SLP121 T03110206
KCGI 031753Z 21006KT 10SM CLR 31/21 A2993 RMK AO2 SLP131 T03060206 10306 20194 58016
KCGI 031653Z VRB04KT 10SM CLR 29/20 A2995 RMK AO2 SLP137 T02940200
KCGI 031553Z 25005KT 10SM CLR 28/19 A2996 RMK AO2 SLP143 T02830194
KCGI 031453Z 26006KT 10SM SCT044 27/18 A2998 RMK AO2 SLP147 T02670183 58003
KCGI 031353Z 27005KT 10SM CLR 25/18 A2998 RMK AO2 SLP150 T02500178